Currently 55°F in Beaumont, California, USA
55°F
55°F / 52°F
2 mph NE
0.00"
Saturday, January 19, 2019 12:44 AM PST

Beaumont, California Weather Summary
Last 36 Hours

Temperature Winds Hourly Humidity Dewpoint
Time Report Norm Report Norm Max Gusts Precip. Rpt. Norm Rpt. Norm Pressure
1Sat 12:44 AM  54.9°F  50°F  2 mph NE  3 mph  9 mph  0.00"  41%  48%  31°F  30°F  30.26"
2Sat 12:39 AM  55.0°F  50°F  4 mph NE  3 mph  9 mph  ----  41%  48%  31°F  30°F  30.26"
3Sat 12:00 AM  51.6°F  50°F  3 mph NE  3 mph  13 mph  0.00"  47%  48%  31°F  30°F  30.27"
Fri 11:00 PM  51.1°F  50°F  5 mph NE  3 mph  9 mph  0.00"  54%  49%  34°F  31°F  30.27"
Fri 10:00 PM  50.5°F  50°F  2 mph NE  4 mph  15 mph  0.00"  58%  48%  36°F  31°F  30.27"
Fri 09:00 PM  52.0°F  51°F  4 mph N  4 mph  8 mph  0.00"  58%  48%  37°F  31°F  30.25"
Fri 08:00 PM  51.1°F  51°F  5 mph NW  4 mph  12 mph  0.00"  70%  48%  41°F  31°F  30.24"
Fri 07:00 PM  51.6°F  52°F  5 mph W  4 mph  8 mph  0.00"  66%  47%  40°F  31°F  30.24"
Fri 06:00 PM  46.6°F  52°F  1 mph SW  4 mph  3 mph  0.00"  90%  46%  44°F  31°F  30.21"
Fri 05:00 PM  48.2°F  54°F  calm  3 mph  5 mph  0.00"  87%  44%  44°F  32°F  30.19"
Fri 04:00 PM  50.4°F  56°F  2 mph SW  5 mph  6 mph  0.00"  83%  41%  45°F  32°F  30.18"
Fri 03:00 PM  51.3°F  58°F  2 mph SW  6 mph  6 mph  0.00"  81%  40%  45°F  33°F  30.19"
Fri 02:00 PM  49.8°F  58°F  1 mph SW  6 mph  7 mph  0.00"  84%  40%  45°F  33°F  30.18"
Fri 01:00 PM  48.7°F  58°F  4 mph S  7 mph  7 mph  0.00"  87%  39%  45°F  32°F  30.18"
Fri 12:00 PM  46.0°F  57°F  calm  7 mph  6 mph  0.00"  95%  40%  45°F  32°F  30.21"
Fri 11:00 AM  45.3°F  56°F  3 mph S  6 mph  8 mph  0.00"  96%  41%  44°F  32°F  30.22"
Fri 10:00 AM  45.0°F  55°F  calm  6 mph  6 mph  0.00"  97%  42%  44°F  31°F  30.22"
Fri 09:00 AM  44.1°F  53°F  2 mph SW  4 mph  5 mph  0.00"  97%  43%  43°F  31°F  30.22"
Fri 08:00 AM  43.5°F  52°F  3 mph W  3 mph  10 mph  0.00"  97%  44%  43°F  30°F  30.20"
Fri 07:00 AM  43.5°F  49°F  1 mph W  3 mph  10 mph  0.00"  97%  46%  43°F  28°F  30.18"
Fri 06:00 AM  43.7°F  49°F  3 mph W  4 mph  13 mph  0.00"  97%  46%  43°F  28°F  30.17"
Fri 05:00 AM  44.1°F  49°F  7 mph W  4 mph  13 mph  0.00"  97%  47%  43°F  28°F  30.14"
Fri 04:00 AM  44.1°F  49°F  3 mph SW  4 mph  13 mph  0.00"  96%  47%  43°F  29°F  30.15"
Fri 03:00 AM  44.6°F  49°F  4 mph W  3 mph  10 mph  0.00"  96%  47%  43°F  29°F  30.15"
Fri 02:00 AM  45.3°F  49°F  1 mph W  4 mph  10 mph  0.00"  95%  47%  44°F  29°F  30.15"
Fri 01:00 AM  46.0°F  50°F  calm  3 mph  12 mph  0.00"  93%  47%  44°F  29°F  30.15"
Fri 12:00 AM  46.2°F  50°F  3 mph NW  3 mph  12 mph  0.00"  93%  47%  44°F  29°F  30.16"
Thu 11:00 PM  46.4°F  50°F  3 mph W  3 mph  10 mph  0.00"  95%  48%  45°F  30°F  30.15"
Thu 10:00 PM  47.1°F  50°F  1 mph SW  4 mph  12 mph  0.00"  95%  47%  46°F  30°F  30.14"
Thu 09:00 PM  47.1°F  51°F  2 mph W  4 mph  13 mph  0.00"  94%  47%  45°F  30°F  30.14"
Thu 08:00 PM  47.5°F  51°F  5 mph NE  4 mph  14 mph  0.00"  92%  48%  45°F  31°F  30.12"
Thu 07:00 PM  51.4°F  52°F  8 mph N  3 mph  22 mph  0.00"  64%  47%  39°F  31°F  30.11"
Thu 06:00 PM  47.5°F  52°F  1 mph NW  4 mph  18 mph  0.00"  97%  46%  47°F  31°F  30.16"
Thu 05:00 PM  49.5°F  54°F  2 mph W  3 mph  12 mph  0.00"  97%  44%  49°F  32°F  30.14"
Thu 04:00 PM  50.0°F  56°F  7 mph W  5 mph  15 mph  0.14"  98%  41%  49°F  32°F  30.13"
Thu 03:00 PM  49.8°F  58°F  2 mph SW  6 mph  8 mph  0.23"  97%  40%  49°F  32°F  30.09"
Thu 02:00 PM  49.6°F  58°F  calm  6 mph  9 mph  0.10"  97%  40%  49°F  33°F  30.09"
Thu 01:00 PM  49.1°F  58°F  3 mph S  7 mph  12 mph  0.07"  97%  39%  48°F  32°F  30.09"
Thu 12:00 PM  48.9°F  57°F  3 mph S  7 mph  7 mph  0.18"  97%  40%  48°F  32°F  30.14"

  1. Current weather data. No green row appears if the current weather data is also the high or low for the current day.
  2. High temperature for the current day.
  3. Low temperature for the current day.

The Beaumont, California weather pages are a service of WeatherCurrents. Cherry Valley is located in northern Riverside County, California, a community of the northern part of Beaumont, along the Interstate 10 highway, in the San Gorgonio pass area, between the communities of Calimesa, Banning.
Copyright ©Sat Jan 19 00:56:13 PST 2019  WeatherCurrents. All rights reserved. - Submit questions and comments - Privacy Policy

This page automatically refreshes every 10 minutes.